createdAt,value
2022-12-05T00:00:27.920Z,99921.69
2022-12-05T00:04:30.937Z,99909.59
2022-12-05T00:08:35.275Z,99901.81
2022-12-05T00:12:38.247Z,99906.16
2022-12-05T00:16:43.555Z,99899.97
2022-12-05T00:20:46.885Z,99886.97
2022-12-05T00:24:51.176Z,99888.69
2022-12-05T00:28:55.107Z,99880.91
2022-12-05T00:32:58.873Z,99880.81
2022-12-05T00:37:01.815Z,99882.53
2022-12-05T00:41:08.447Z,99865.00
2022-12-05T00:45:12.315Z,99878.97
2022-12-05T00:49:15.348Z,99882.53
2022-12-05T00:53:18.290Z,99879.03
2022-12-05T00:57:23.779Z,99892.06
2022-12-05T01:01:28.922Z,99894.72
2022-12-05T01:05:31.875Z,99899.94
2022-12-05T01:09:35.010Z,99901.72
2022-12-05T01:13:39.388Z,99901.63
2022-12-05T01:17:42.291Z,99915.50
2022-12-05T01:21:46.055Z,99919.06
2022-12-05T01:25:51.607Z,99915.59
2022-12-05T01:29:56.160Z,99899.06
2022-12-05T01:34:01.768Z,99906.13
2022-12-05T01:38:04.786Z,99899.19
2022-12-05T01:42:07.938Z,99879.22
2022-12-05T01:46:12.250Z,99874.81
2022-12-05T01:50:15.643Z,99867.78
2022-12-05T01:54:20.899Z,99883.47
2022-12-05T01:58:29.764Z,99882.56
2022-12-05T02:02:34.386Z,99877.34
2022-12-05T02:06:37.647Z,99871.34
2022-12-05T02:10:44.255Z,99877.34
2022-12-05T02:14:59.010Z,99897.41
2022-12-05T02:19:25.484Z,99900.94
2022-12-05T02:23:44.400Z,99901.72
2022-12-05T02:28:18.207Z,99893.91
2022-12-05T02:32:33.837Z,99899.00
2022-12-05T02:36:44.001Z,99894.63
2022-12-05T02:40:57.110Z,99895.53
2022-12-05T02:45:07.150Z,99885.97
2022-12-05T02:49:14.345Z,99879.00
2022-12-05T02:53:18.802Z,99875.53
2022-12-05T02:57:24.674Z,99892.09
2022-12-05T03:01:31.507Z,99877.31
2022-12-05T03:05:42.225Z,99882.47
2022-12-05T03:09:49.549Z,99895.56
2022-12-05T03:13:56.718Z,99885.09
2022-12-05T03:18:06.637Z,99895.41
2022-12-05T03:22:18.639Z,99889.34
2022-12-05T03:26:37.458Z,99883.25
2022-12-05T03:30:40.636Z,99894.53
2022-12-05T03:34:51.121Z,99890.13
2022-12-05T03:38:59.022Z,99895.31
2022-12-05T03:43:10.319Z,99913.66
2022-12-05T03:47:18.814Z,99927.50
2022-12-05T03:51:26.550Z,99925.75
2022-12-05T03:55:35.890Z,99927.50
2022-12-05T03:59:42.256Z,99923.97
2022-12-05T04:03:51.801Z,99923.03
2022-12-05T04:08:02.095Z,99935.31
2022-12-05T04:12:12.418Z,99940.50
2022-12-05T04:16:38.210Z,99930.16
2022-12-05T04:21:00.997Z,99935.28
2022-12-05T04:25:24.038Z,99941.38
2022-12-05T04:29:33.168Z,99946.69
2022-12-05T04:33:43.043Z,99949.34
2022-12-05T04:37:48.724Z,99956.34
2022-12-05T04:41:55.238Z,99949.38
2022-12-05T04:46:02.101Z,99958.97
2022-12-05T04:50:08.349Z,99963.31
2022-12-05T04:54:18.414Z,99953.69
2022-12-05T04:58:23.798Z,99963.22
2022-12-05T05:02:34.635Z,99963.13
2022-12-05T05:06:38.712Z,99971.91
2022-12-05T05:10:51.811Z,99972.69
2022-12-05T05:14:54.715Z,99977.91
2022-12-05T05:18:59.198Z,99973.56
2022-12-05T05:23:02.610Z,99972.75
2022-12-05T05:27:05.738Z,99969.25
2022-12-05T05:31:09.058Z,99977.09
2022-12-05T05:35:14.039Z,99985.69
2022-12-05T05:39:16.984Z,99994.44
2022-12-05T05:43:19.896Z,100006.53
2022-12-05T05:47:23.001Z,100002.19
2022-12-05T05:51:29.324Z,100005.63
2022-12-05T05:55:32.249Z,100017.84
2022-12-05T05:59:35.445Z,100016.16
2022-12-05T06:03:38.649Z,100015.34
2022-12-05T06:07:43.167Z,100014.47
2022-12-05T06:11:46.165Z,100013.63
2022-12-05T06:15:49.296Z,100007.50
2022-12-05T06:19:52.222Z,100014.47
2022-12-05T06:23:56.902Z,100008.41
2022-12-05T06:27:59.846Z,100009.25
2022-12-05T06:32:03.031Z,100017.94
2022-12-05T06:36:07.982Z,100025.81
2022-12-05T06:40:13.783Z,100025.00
2022-12-05T06:44:16.691Z,100029.34
2022-12-05T06:48:19.684Z,100038.97
2022-12-05T06:52:22.641Z,100042.44
2022-12-05T06:56:27.084Z,100050.28
2022-12-05T07:00:47.577Z,100066.84
2022-12-05T07:04:50.476Z,100067.78
2022-12-05T07:08:53.756Z,100065.16
2022-12-05T07:12:57.995Z,100061.69
2022-12-05T07:17:01.339Z,100067.81
2022-12-05T07:21:14.474Z,100068.78
2022-12-05T07:25:17.774Z,100071.34
2022-12-05T07:29:22.094Z,100070.63
2022-12-05T07:33:25.016Z,100071.50
2022-12-05T07:37:28.110Z,100077.66
2022-12-05T07:41:33.528Z,100076.00
2022-12-05T07:45:43.651Z,100073.28
2022-12-05T07:49:46.598Z,100086.41
2022-12-05T07:53:49.737Z,100084.63
2022-12-05T07:57:52.619Z,100094.19
2022-12-05T08:01:57.047Z,100084.63
2022-12-05T08:06:04.176Z,100084.81
2022-12-05T08:10:08.597Z,100083.13
2022-12-05T08:14:11.948Z,100088.44
2022-12-05T08:18:16.443Z,100100.63
2022-12-05T08:22:19.342Z,100097.13
2022-12-05T08:26:25.536Z,100098.00
2022-12-05T08:30:28.566Z,100108.50
2022-12-05T08:34:32.962Z,100104.25
2022-12-05T08:38:36.425Z,100109.47
2022-12-05T08:42:39.347Z,100118.03
2022-12-05T08:46:42.297Z,100129.34
2022-12-05T08:50:46.765Z,100128.44
2022-12-05T08:54:49.676Z,100130.22
2022-12-05T08:58:52.777Z,100117.97
2022-12-05T09:02:55.734Z,100130.31
2022-12-05T09:07:02.708Z,100132.88
2022-12-05T09:11:07.462Z,100130.31
2022-12-05T09:15:12.669Z,100127.75
2022-12-05T09:19:17.825Z,100128.63
2022-12-05T09:23:22.465Z,100136.59
2022-12-05T09:27:25.545Z,100126.19
2022-12-05T09:31:29.364Z,100127.06
2022-12-05T09:35:32.351Z,100130.50
2022-12-05T09:39:36.923Z,100125.28
2022-12-05T09:43:49.753Z,100125.38
2022-12-05T09:48:00.972Z,100125.41
2022-12-05T09:52:05.956Z,100130.69
2022-12-05T09:56:19.606Z,100129.91
2022-12-05T10:00:22.707Z,100135.22
2022-12-05T10:04:47.972Z,100126.53
2022-12-05T10:09:08.798Z,100124.72
2022-12-05T10:13:26.837Z,100136.41
2022-12-05T10:17:33.742Z,100137.47
2022-12-05T10:21:43.108Z,100134.75
2022-12-05T10:25:46.928Z,100139.97
2022-12-05T10:29:59.409Z,100133.03
2022-12-05T10:34:06.064Z,100128.56
2022-12-05T10:38:25.075Z,100126.66
2022-12-05T10:42:32.694Z,100124.00
2022-12-05T10:46:37.335Z,100118.78
2022-12-05T10:50:43.257Z,100131.13
2022-12-05T10:54:50.347Z,100120.63
2022-12-05T10:58:56.857Z,100118.09
2022-12-05T11:03:05.128Z,100122.59
2022-12-05T11:07:08.388Z,100113.88
2022-12-05T11:11:20.662Z,100112.13
2022-12-05T11:15:26.278Z,100108.66
2022-12-05T11:19:32.552Z,100117.44
2022-12-05T11:23:35.756Z,100112.22
2022-12-05T11:27:38.704Z,100099.03
2022-12-05T11:31:51.798Z,100100.78
2022-12-05T11:36:00.195Z,100096.31
2022-12-05T11:40:13.464Z,100088.50
2022-12-05T11:44:32.559Z,100078.84
2022-12-05T11:49:01.355Z,100085.88
2022-12-05T11:53:23.954Z,100068.81
2022-12-05T11:57:47.412Z,100063.44
2022-12-05T12:02:05.539Z,100070.25
2022-12-05T12:06:26.395Z,100061.41
2022-12-05T12:10:38.339Z,100064.94
2022-12-05T12:14:47.592Z,100064.94
2022-12-05T12:19:16.408Z,100061.47
2022-12-05T12:23:37.219Z,100054.56
2022-12-05T12:27:53.703Z,100051.03
2022-12-05T12:32:11.195Z,100031.75
2022-12-05T12:36:19.860Z,100045.63
2022-12-05T12:40:27.682Z,100043.78
2022-12-05T12:45:11.576Z,100039.34
2022-12-05T12:49:32.933Z,100040.25
2022-12-05T12:54:04.425Z,100050.63
2022-12-05T12:58:18.961Z,100036.66
2022-12-05T13:02:28.878Z,100046.28
2022-12-05T13:06:39.477Z,100054.25
2022-12-05T13:10:45.051Z,100059.59
2022-12-05T13:14:53.359Z,100060.63
2022-12-05T13:18:58.609Z,100061.44
2022-12-05T13:23:07.933Z,100063.22
2022-12-05T13:27:17.775Z,100056.41
2022-12-05T13:31:35.026Z,100056.41
2022-12-05T13:35:57.665Z,100050.47
2022-12-05T13:40:18.276Z,100057.31
2022-12-05T13:44:33.255Z,100058.19
2022-12-05T13:48:39.673Z,100066.09
2022-12-05T13:52:48.185Z,100051.31
2022-12-05T13:56:54.251Z,100055.75
2022-12-05T14:01:48.962Z,100067.16
2022-12-05T14:05:56.149Z,100053.34
2022-12-05T14:10:00.989Z,100070.66
2022-12-05T14:14:05.244Z,100066.25
2022-12-05T14:18:16.178Z,100079.19
2022-12-05T14:22:51.150Z,100087.75
2022-12-05T14:27:07.443Z,100082.63
2022-12-05T14:31:27.868Z,100079.19
2022-12-05T14:35:41.063Z,100067.03
2022-12-05T14:39:47.232Z,100067.91
2022-12-05T14:43:55.604Z,100067.94
2022-12-05T14:48:00.364Z,100069.78
2022-12-05T14:52:11.305Z,100068.03
2022-12-05T14:56:22.730Z,100075.00
2022-12-05T15:00:27.732Z,100085.63
2022-12-05T15:04:36.734Z,100089.22
2022-12-05T15:08:46.295Z,100088.41
2022-12-05T15:12:52.613Z,100077.72
2022-12-05T15:17:00.820Z,100064.69
2022-12-05T15:21:10.909Z,100074.09
2022-12-05T15:25:32.305Z,100089.81
2022-12-05T15:29:36.358Z,100096.91
2022-12-05T15:33:52.661Z,100103.94
2022-12-05T15:38:00.245Z,100103.09
2022-12-05T15:42:04.916Z,100105.75
2022-12-05T15:46:09.945Z,100111.94
2022-12-05T15:50:16.197Z,100125.06
2022-12-05T15:54:28.850Z,100118.19
2022-12-05T15:58:37.817Z,100113.81
2022-12-05T16:02:45.862Z,100117.31
2022-12-05T16:06:51.848Z,100130.50
2022-12-05T16:10:55.713Z,100144.47
2022-12-05T16:15:03.908Z,100137.22
2022-12-05T16:19:16.407Z,100139.66
2022-12-05T16:23:28.041Z,100142.13
2022-12-05T16:27:34.574Z,100135.94
2022-12-05T16:31:39.132Z,100129.78
2022-12-05T16:35:45.476Z,100134.97
2022-12-05T16:39:50.022Z,100129.75
2022-12-05T16:43:54.038Z,100128.06
2022-12-05T16:47:59.634Z,100124.66
2022-12-05T16:52:12.401Z,100117.00
2022-12-05T16:56:19.613Z,100103.16
2022-12-05T17:00:23.289Z,100105.81
2022-12-05T17:04:26.374Z,100104.09
2022-12-05T17:08:29.510Z,100096.28
2022-12-05T17:12:34.418Z,100094.56
2022-12-05T17:16:37.448Z,100091.09
2022-12-05T17:20:42.750Z,100088.47
2022-12-05T17:24:45.864Z,100090.16
2022-12-05T17:28:50.839Z,100091.03
2022-12-05T17:32:53.812Z,100093.66
2022-12-05T17:36:56.816Z,100092.78
2022-12-05T17:41:02.644Z,100087.56
2022-12-05T17:45:16.587Z,100092.78
2022-12-05T17:49:20.075Z,100086.72
2022-12-05T17:53:23.315Z,100094.59
2022-12-05T17:57:26.342Z,100093.69
2022-12-05T18:01:30.930Z,100084.94
2022-12-05T18:05:33.901Z,100100.53
2022-12-05T18:09:36.932Z,100099.72
2022-12-05T18:13:40.093Z,100104.16
2022-12-05T18:17:45.288Z,100090.28
2022-12-05T18:21:48.314Z,100086.81
2022-12-05T18:25:59.021Z,100077.25
2022-12-05T18:30:02.204Z,100072.88
2022-12-05T18:34:06.526Z,100067.63
2022-12-05T18:38:10.824Z,100075.44
2022-12-05T18:42:15.437Z,100069.38
2022-12-05T18:46:18.983Z,100062.41
2022-12-05T18:50:23.414Z,100072.81
2022-12-05T18:54:27.303Z,100062.28
2022-12-05T18:58:30.311Z,100062.28
2022-12-05T19:02:33.551Z,100069.25
2022-12-05T19:06:39.831Z,100087.50
2022-12-05T19:10:42.921Z,100078.00
2022-12-05T19:14:47.855Z,100060.66
2022-12-05T19:18:55.765Z,100052.78
2022-12-05T19:23:01.233Z,100061.56
2022-12-05T19:27:04.311Z,100057.31
2022-12-05T19:31:09.007Z,100047.59
2022-12-05T19:35:12.193Z,100039.59
2022-12-05T19:39:18.585Z,100049.22
2022-12-05T19:43:21.804Z,100049.41
2022-12-05T19:47:24.937Z,100061.78
2022-12-05T19:51:28.470Z,100044.53
2022-12-05T19:55:32.997Z,100035.88
2022-12-05T19:59:35.959Z,100028.16
2022-12-05T20:03:40.041Z,100030.84
2022-12-05T20:07:43.462Z,100027.38
2022-12-05T20:11:55.121Z,100022.09
2022-12-05T20:16:02.454Z,100019.47
2022-12-05T20:20:06.301Z,100007.31
2022-12-05T20:24:11.507Z,100003.84
2022-12-05T20:28:16.025Z,100003.03
2022-12-05T20:32:18.982Z,100012.66
2022-12-05T20:36:24.862Z,100009.22
2022-12-05T20:40:27.799Z,99997.03
2022-12-05T20:44:35.905Z,100003.97
2022-12-05T20:48:39.006Z,100013.53
2022-12-05T20:52:46.601Z,100005.63
2022-12-05T20:56:50.194Z,99998.56
2022-12-05T21:01:00.269Z,99989.75
2022-12-05T21:05:03.531Z,99982.00
2022-12-05T21:09:14.937Z,99976.81
2022-12-05T21:13:18.118Z,99958.38
2022-12-05T21:17:23.069Z,99960.16
2022-12-05T21:21:28.885Z,99980.31
2022-12-05T21:25:33.085Z,99974.28
2022-12-05T21:29:37.568Z,99973.44
2022-12-05T21:33:43.691Z,99960.28
2022-12-05T21:37:46.770Z,99947.19
2022-12-05T21:41:49.888Z,99953.25
2022-12-05T21:45:53.970Z,99950.69
2022-12-05T21:49:59.439Z,99953.38
2022-12-05T21:54:02.647Z,99958.66
2022-12-05T21:58:05.909Z,99945.63
2022-12-05T22:02:11.104Z,99935.22
2022-12-05T22:06:16.381Z,99957.88
2022-12-05T22:10:19.577Z,99973.53
2022-12-05T22:14:22.705Z,99964.72
2022-12-05T22:18:25.744Z,99945.53
2022-12-05T22:22:30.116Z,99950.78
2022-12-05T22:26:33.263Z,99975.25
2022-12-05T22:30:36.231Z,99948.19
2022-12-05T22:34:39.197Z,99942.94
2022-12-05T22:38:45.362Z,99951.66
2022-12-05T22:42:48.299Z,99950.78
2022-12-05T22:46:51.594Z,99935.03
2022-12-05T22:50:55.793Z,99934.13
2022-12-05T22:55:00.639Z,99943.66
2022-12-05T22:59:04.707Z,99948.81
2022-12-05T23:03:08.033Z,99952.13
2022-12-05T23:07:11.428Z,99964.25
2022-12-05T23:11:17.154Z,99969.41
2022-12-05T23:15:20.164Z,99965.72
2022-12-05T23:19:23.300Z,99963.69
2022-12-05T23:23:26.261Z,99973.16
2022-12-05T23:27:30.678Z,99962.41
2022-12-05T23:31:34.100Z,99968.34
2022-12-05T23:35:37.528Z,99976.00
2022-12-05T23:39:40.801Z,99968.00
2022-12-05T23:43:45.482Z,99957.31
2022-12-05T23:47:48.468Z,99957.78
2022-12-05T23:51:51.441Z,99966.25
2022-12-05T23:55:54.415Z,99965.09
2022-12-05T23:59:59.012Z,99959.56
